Time;durP1;ratioP1;P1;durP2;ratioP2;P2;SDS_P1;SDS_P2;PMS_P1;PMS_P2;Temp;Humidity;BMP_temperature;BMP_pressure;BME280_temperature;BME280_humidity;BME280_pressure;Samples;Min_cycle;Max_cycle;Signal;HPM_P1;HPM_P2
2022/03/05 00:02:22;;;;;;;14.40;7.83;;;;;;;0.96;100.00;99018.66;5012339;28;20048;-57
2022/03/05 00:04:47;;;;;;;14.03;7.20;;;;;;;0.92;100.00;99035.38;5012323;28;20208;-57
2022/03/05 00:07:13;;;;;;;13.90;7.67;;;;;;;0.98;100.00;99014.50;5013143;28;20033;-58
2022/03/05 00:09:38;;;;;;;17.77;8.00;;;;;;;1.04;100.00;99028.13;5012724;28;20149;-57
2022/03/05 00:12:04;;;;;;;21.70;9.10;;;;;;;1.04;100.00;99023.06;5016313;28;20037;-56
2022/03/05 00:14:29;;;;;;;14.07;8.00;;;;;;;1.06;100.00;99023.13;5014275;28;20129;-58
2022/03/05 00:16:55;;;;;;;23.30;8.73;;;;;;;1.01;100.00;99017.94;5017352;28;20065;-55
2022/03/05 00:19:21;;;;;;;13.73;8.13;;;;;;;1.04;100.00;99023.06;5015861;28;20034;-58
2022/03/05 00:21:46;;;;;;;19.40;8.47;;;;;;;0.93;100.00;99012.69;5014189;28;20327;-59
2022/03/05 00:24:12;;;;;;;21.23;8.70;;;;;;;1.01;100.00;99024.66;5013951;28;20061;-59
2022/03/05 00:26:37;;;;;;;15.60;8.20;;;;;;;1.00;100.00;99021.28;5018179;28;20038;-57
2022/03/05 00:29:03;;;;;;;19.77;9.40;;;;;;;0.93;100.00;99017.72;5015744;28;20107;-57
2022/03/05 00:31:28;;;;;;;22.50;9.27;;;;;;;0.98;100.00;99011.97;5013258;28;20056;-57
2022/03/05 00:33:53;;;;;;;21.13;9.93;;;;;;;0.91;100.00;99016.84;5012503;28;20041;-58
2022/03/05 00:36:19;;;;;;;21.50;9.07;;;;;;;0.93;100.00;99014.38;5014746;28;20076;-58
2022/03/05 00:38:45;;;;;;;19.37;8.53;;;;;;;0.88;100.00;99013.41;5017952;28;20389;-58
2022/03/05 00:41:11;;;;;;;19.63;9.13;;;;;;;0.86;100.00;99017.53;5014092;28;20046;-58
2022/03/05 00:43:37;;;;;;;18.33;9.10;;;;;;;0.91;100.00;99018.53;5014759;28;20072;-59
2022/03/05 00:46:02;;;;;;;15.63;8.07;;;;;;;0.85;100.00;99015.84;5016888;28;20046;-56
2022/03/05 00:48:28;;;;;;;18.93;8.93;;;;;;;0.88;100.00;99014.25;5016434;28;20073;-57
2022/03/05 00:50:53;;;;;;;20.13;9.33;;;;;;;0.86;100.00;99008.31;5011406;28;20146;-57
2022/03/05 00:53:21;;;;;;;18.67;9.13;;;;;;;0.89;100.00;99000.81;5014062;28;20026;-58
2022/03/05 00:55:47;;;;;;;20.47;9.40;;;;;;;0.87;100.00;99007.50;5017386;28;20092;-57
2022/03/05 00:58:14;;;;;;;18.87;8.53;;;;;;;0.90;100.00;99006.72;5011628;28;20092;-58
2022/03/05 01:00:39;;;;;;;18.63;10.83;;;;;;;1.00;100.00;99002.75;5010011;28;20052;-57
2022/03/05 01:03:04;;;;;;;22.33;10.03;;;;;;;0.89;100.00;99000.81;5013684;28;20045;-58
2022/03/05 01:05:30;;;;;;;25.03;10.30;;;;;;;0.87;100.00;99002.47;5015085;28;20033;-56
2022/03/05 01:07:55;;;;;;;20.73;9.27;;;;;;;0.90;100.00;99001.66;5013690;28;20493;-58
2022/03/05 01:10:21;;;;;;;18.53;11.60;;;;;;;0.95;100.00;98999.25;5015591;28;20041;-57
2022/03/05 01:12:46;;;;;;;19.40;9.40;;;;;;;0.89;100.00;98988.19;5016970;28;20041;-53
2022/03/05 01:15:11;;;;;;;22.73;10.03;;;;;;;0.85;100.00;98995.66;5019244;28;20041;-54
2022/03/05 01:17:37;;;;;;;21.33;10.43;;;;;;;0.85;100.00;98990.59;5014317;28;20038;-58
2022/03/05 01:20:04;;;;;;;20.93;9.80;;;;;;;0.93;100.00;98997.53;5015616;28;20048;-59
2022/03/05 01:22:29;;;;;;;18.70;9.53;;;;;;;0.89;100.00;98998.28;5017132;28;20129;-54
2022/03/05 01:24:55;;;;;;;24.37;11.07;;;;;;;0.78;100.00;98996.31;5016343;28;20133;-54
2022/03/05 01:27:22;;;;;;;22.93;11.00;;;;;;;0.83;100.00;98998.16;5012304;28;20152;-55
2022/03/05 01:29:47;;;;;;;19.13;10.03;;;;;;;0.83;100.00;99004.88;5014597;28;20456;-55
2022/03/05 01:32:13;;;;;;;18.93;10.70;;;;;;;0.84;100.00;99001.53;5014443;28;20039;-58
2022/03/05 01:34:38;;;;;;;26.07;12.97;;;;;;;0.80;100.00;98990.50;5013578;28;20110;-58
2022/03/05 01:37:04;;;;;;;22.17;10.47;;;;;;;0.91;100.00;99003.38;5015986;28;20467;-57
2022/03/05 01:39:29;;;;;;;22.87;10.10;;;;;;;0.82;100.00;99003.16;5014225;28;20042;-58
2022/03/05 01:41:55;;;;;;;21.20;10.63;;;;;;;0.87;100.00;99010.03;5019740;28;20141;-55
2022/03/05 01:44:22;;;;;;;20.03;10.83;;;;;;;0.87;100.00;99002.47;5018718;28;20045;-57
2022/03/05 01:46:48;;;;;;;21.87;11.43;;;;;;;0.97;100.00;99003.53;5017684;28;20041;-58
2022/03/05 01:49:13;;;;;;;23.83;11.03;;;;;;;0.85;100.00;99004.06;5020589;28;20042;-56
2022/03/05 01:51:40;;;;;;;22.07;11.47;;;;;;;0.91;100.00;99003.38;5018286;28;20068;-55
2022/03/05 01:54:07;;;;;;;19.90;11.67;;;;;;;0.89;100.00;98999.97;5015177;28;20049;-54
2022/03/05 01:56:34;;;;;;;22.97;10.63;;;;;;;0.90;100.00;99009.25;5017055;28;20046;-55
2022/03/05 01:59:00;;;;;;;21.57;11.10;;;;;;;0.90;100.00;99010.09;5017497;28;20384;-55
2022/03/05 02:01:27;;;;;;;27.43;11.07;;;;;;;0.95;100.00;99004.31;5019111;28;20072;-55
2022/03/05 02:03:54;;;;;;;25.73;12.87;;;;;;;1.00;100.00;99001.09;5017513;28;20041;-57
2022/03/05 02:06:20;;;;;;;25.00;11.70;;;;;;;0.93;100.00;99008.47;5016259;28;20041;-57
2022/03/05 02:08:47;;;;;;;21.33;10.73;;;;;;;0.90;100.00;98999.13;5017439;28;20042;-57
2022/03/05 02:11:12;;;;;;;24.63;11.77;;;;;;;0.92;100.00;99000.06;5016361;28;20572;-56
2022/03/05 02:13:37;;;;;;;21.93;10.67;;;;;;;0.99;100.00;99009.47;5014148;28;20067;-58
2022/03/05 02:16:03;;;;;;;21.57;11.40;;;;;;;1.00;100.00;99002.75;5014838;28;20050;-57
2022/03/05 02:18:29;;;;;;;28.33;13.10;;;;;;;0.99;100.00;99009.47;5015069;28;20042;-58
2022/03/05 02:20:55;;;;;;;23.17;11.80;;;;;;;0.87;100.00;98991.50;5015578;28;20049;-59
2022/03/05 02:23:21;;;;;;;25.77;11.90;;;;;;;1.03;100.00;99003.69;5015577;28;20042;-59
2022/03/05 02:25:58;;;;;;;24.13;12.07;;;;;;;1.05;100.00;99006.25;5016015;28;20193;-57
2022/03/05 02:28:25;;;;;;;26.07;11.83;;;;;;;1.06;100.00;99005.44;5016234;28;20091;-58
2022/03/05 02:30:51;;;;;;;22.33;12.03;;;;;;;1.01;100.00;98995.22;5016561;28;20557;-59
2022/03/05 02:33:17;;;;;;;24.33;12.70;;;;;;;1.00;100.00;98995.19;5014356;28;20050;-58
2022/03/05 02:35:44;;;;;;;27.53;13.00;;;;;;;0.99;100.00;99006.09;5015783;28;20038;-58
2022/03/05 02:38:14;;;;;;;20.43;10.17;;;;;;;0.98;100.00;99004.41;5014904;28;20042;-57
2022/03/05 02:40:40;;;;;;;25.20;10.63;;;;;;;0.99;100.00;99001.91;5016529;28;20038;-59
2022/03/05 02:43:06;;;;;;;24.40;11.07;;;;;;;0.95;100.00;98990.03;5012378;28;20073;-59
2022/03/05 02:45:32;;;;;;;25.53;12.17;;;;;;;1.01;100.00;98994.38;5013522;28;20041;-56
2022/03/05 02:47:58;;;;;;;34.43;14.07;;;;;;;1.04;100.00;98999.50;5016368;28;20053;-57
2022/03/05 02:50:23;;;;;;;22.90;12.27;;;;;;;1.05;100.00;99001.19;5015064;28;20098;-58
2022/03/05 02:52:49;;;;;;;27.87;12.40;;;;;;;1.02;100.00;99006.19;5012455;28;20087;-57
2022/03/05 02:55:14;;;;;;;25.27;11.97;;;;;;;0.99;100.00;99008.63;5016941;28;20093;-58
2022/03/05 02:57:40;;;;;;;25.87;12.17;;;;;;;1.14;100.00;99002.28;5018022;28;20096;-57
2022/03/05 03:00:06;;;;;;;22.50;11.00;;;;;;;1.04;100.00;99007.06;5017861;28;20045;-57
2022/03/05 03:02:31;;;;;;;26.00;13.53;;;;;;;0.98;100.00;99004.41;5014646;28;20038;-57
2022/03/05 03:04:57;;;;;;;22.67;11.33;;;;;;;0.93;100.00;99009.34;5014373;28;20049;-57
2022/03/05 03:07:22;;;;;;;23.27;12.47;;;;;;;0.85;100.00;98999.03;5023997;28;20042;-56
2022/03/05 03:09:48;;;;;;;25.93;12.13;;;;;;;0.96;100.00;99008.53;5024440;28;20467;-57
2022/03/05 03:12:13;;;;;;;28.17;13.03;;;;;;;0.90;100.00;99015.16;5017765;28;20121;-57
2022/03/05 03:14:38;;;;;;;29.27;12.37;;;;;;;0.87;100.00;99014.22;5014326;28;20423;-58
2022/03/05 03:17:04;;;;;;;25.33;12.23;;;;;;;0.82;100.00;99014.09;5019130;28;20034;-56
2022/03/05 03:19:29;;;;;;;24.13;12.30;;;;;;;0.77;100.00;99017.31;5014792;28;20173;-57
2022/03/05 03:21:55;;;;;;;27.10;12.43;;;;;;;0.76;100.00;99010.56;5011900;28;20041;-57
2022/03/05 03:24:20;;;;;;;28.47;13.27;;;;;;;0.75;100.00;99004.66;5014754;28;20072;-58
2022/03/05 03:26:46;;;;;;;25.07;11.57;;;;;;;0.87;100.00;99007.50;5017332;28;20067;-56
2022/03/05 03:29:11;;;;;;;28.07;13.30;;;;;;;0.80;100.00;99008.19;5018676;28;20042;-58
2022/03/05 03:31:38;;;;;;;31.67;13.60;;;;;;;0.77;100.00;99002.16;5015388;28;20088;-58
2022/03/05 03:34:03;;;;;;;27.53;13.57;;;;;;;0.78;100.00;99008.94;5017252;28;20045;-58
2022/03/05 03:36:29;;;;;;;28.53;14.70;;;;;;;0.74;100.00;99008.00;5017992;28;20063;-58
2022/03/05 03:38:54;;;;;;;27.00;13.67;;;;;;;0.66;100.00;99011.16;5013274;28;20395;-58
2022/03/05 03:41:19;;;;;;;25.60;12.97;;;;;;;0.71;100.00;99009.59;5011224;28;20399;-57
2022/03/05 03:43:45;;;;;;;26.60;12.13;;;;;;;0.56;100.00;99012.56;5017338;28;20124;-54
2022/03/05 03:46:11;;;;;;;27.87;12.50;;;;;;;0.60;100.00;99009.31;5018007;28;20087;-56
2022/03/05 03:48:36;;;;;;;28.73;13.80;;;;;;;0.58;100.00;99007.56;5013080;28;20114;-56
2022/03/05 03:51:02;;;;;;;31.57;14.70;;;;;;;0.49;100.00;98988.00;5011532;28;20810;-53
2022/03/05 03:53:28;;;;;;;28.53;14.43;;;;;;;0.60;100.00;99001.75;5014701;28;20552;-55
2022/03/05 03:55:53;;;;;;;25.93;13.20;;;;;;;0.56;100.00;99006.66;5015677;28;20034;-58
2022/03/05 03:58:19;;;;;;;27.37;13.13;;;;;;;0.51;100.00;99011.56;5013650;28;20524;-54
2022/03/05 04:00:44;;;;;;;26.53;14.63;;;;;;;0.38;100.00;99009.56;5015627;28;20590;-55
2022/03/05 04:03:10;;;;;;;26.33;13.53;;;;;;;0.40;100.00;99003.75;5017442;28;20053;-58
2022/03/05 04:05:35;;;;;;;31.90;14.30;;;;;;;0.26;100.00;99004.16;5017926;28;20444;-59
2022/03/05 04:10:45;;;;;;;29.80;13.13;;;;;;;0.26;100.00;98994.09;5015096;28;20103;-56
2022/03/05 04:13:10;;;;;;;24.87;12.40;;;;;;;0.35;100.00;98995.19;5017887;28;20049;-55
2022/03/05 04:15:36;;;;;;;31.13;13.97;;;;;;;0.34;100.00;99001.03;5014362;28;20048;-52
2022/03/05 04:18:02;;;;;;;25.90;13.50;;;;;;;0.38;100.00;99005.34;5009600;28;20051;-56
2022/03/05 04:20:27;;;;;;;28.50;12.10;;;;;;;0.41;100.00;99004.59;5012767;28;20038;-57
2022/03/05 04:22:53;;;;;;;34.60;13.63;;;;;;;0.41;100.00;99002.06;5015662;28;20041;-53
2022/03/05 04:25:18;;;;;;;28.70;13.70;;;;;;;0.47;100.00;99003.91;5014844;28;20041;-56
2022/03/05 04:27:44;;;;;;;27.47;13.87;;;;;;;0.48;100.00;98998.91;5011796;28;20201;-58
2022/03/05 04:30:10;;;;;;;25.80;13.97;;;;;;;0.33;100.00;98999.34;5012146;28;20033;-57
2022/03/05 04:32:36;;;;;;;33.13;15.07;;;;;;;0.25;100.00;99007.53;5014728;28;20041;-58
2022/03/05 04:35:02;;;;;;;31.83;13.73;;;;;;;0.30;100.00;99003.44;5012036;28;20369;-58
2022/03/05 04:37:27;;;;;;;30.90;13.53;;;;;;;0.23;100.00;99012.50;5010011;28;20477;-57
2022/03/05 04:39:52;;;;;;;33.47;14.40;;;;;;;0.22;100.00;99018.34;5012108;28;20041;-57
2022/03/05 04:42:18;;;;;;;27.90;13.17;;;;;;;0.20;100.00;99019.13;5013526;28;20046;-58
2022/03/05 04:44:43;;;;;;;28.57;14.33;;;;;;;0.21;100.00;99016.63;5013299;28;20052;-58
2022/03/05 04:47:09;;;;;;;32.40;14.73;;;;;;;0.14;100.00;99016.44;5009099;28;20092;-57
2022/03/05 04:49:34;;;;;;;33.43;16.13;;;;;;;0.09;100.00;99018.81;5016088;28;20044;-58
2022/03/05 04:52:00;;;;;;;30.60;14.30;;;;;;;0.14;100.00;99018.94;5017203;28;20041;-56
2022/03/05 04:54:29;;;;;;;27.83;14.43;;;;;;;0.12;100.00;99016.41;5013668;28;20049;-57
2022/03/05 04:56:55;;;;;;;32.23;14.37;;;;;;;0.22;100.00;99017.50;5013174;28;20033;-58
2022/03/05 04:59:20;;;;;;;30.67;14.10;;;;;;;0.26;100.00;99014.25;5017284;28;20100;-58
2022/03/05 05:01:46;;;;;;;27.63;13.63;;;;;;;0.30;100.00;99011.84;5014177;28;20890;-58
2022/03/05 05:04:11;;;;;;;33.90;14.93;;;;;;;0.29;100.00;99009.31;5012000;28;20050;-57
2022/03/05 05:06:37;;;;;;;28.53;13.40;;;;;;;0.29;100.00;99015.22;5015517;28;20073;-59
2022/03/05 05:09:02;;;;;;;27.70;13.80;;;;;;;0.29;100.00;99020.25;5015004;28;20037;-57
2022/03/05 05:11:28;;;;;;;32.93;15.33;;;;;;;0.22;100.00;99018.34;5015401;28;20054;-57
2022/03/05 05:13:53;;;;;;;32.37;14.37;;;;;;;0.25;100.00;99015.94;5013492;28;20407;-57
2022/03/05 05:16:18;;;;;;;29.27;13.50;;;;;;;0.26;100.00;99021.81;5012420;28;20044;-55
2022/03/05 05:19:24;;;;;;;28.23;13.00;;;;;;;0.29;100.00;99021.91;5013635;28;20037;-57
2022/03/05 05:21:29;;;;;;;30.10;12.85;;;;;;;0.49;100.00;99020.78;5013188;28;20111;-58
2022/03/05 05:23:55;;;;;;;27.93;13.77;;;;;;;0.43;100.00;99018.94;5009985;28;20117;-56
2022/03/05 05:26:20;;;;;;;34.27;17.10;;;;;;;0.37;100.00;99018.81;5011462;28;20040;-55
2022/03/05 05:28:46;;;;;;;30.33;16.50;;;;;;;0.42;100.00;99016.41;5014223;28;20048;-57
2022/03/05 05:31:11;;;;;;;34.23;16.53;;;;;;;0.44;100.00;99017.28;5013942;28;20072;-57
2022/03/05 05:33:39;;;;;;;33.80;15.80;;;;;;;0.43;100.00;99020.59;5011703;28;20096;-58
2022/03/05 05:36:05;;;;;;;25.77;13.00;;;;;;;0.36;100.00;99013.69;5013380;28;20365;-58
2022/03/05 05:38:31;;;;;;;33.07;15.50;;;;;;;0.41;100.00;99020.59;5016469;28;20095;-59
2022/03/05 05:40:56;;;;;;;29.53;14.77;;;;;;;0.39;100.00;99018.81;5012715;28;20092;-57
2022/03/05 05:43:22;;;;;;;45.43;21.90;;;;;;;0.41;100.00;99022.25;5010551;28;20042;-58
2022/03/05 05:45:47;;;;;;;64.83;28.20;;;;;;;0.38;100.00;99020.47;5013804;28;20042;-57
2022/03/05 05:48:12;;;;;;;89.00;33.70;;;;;;;0.46;100.00;99020.72;5014936;28;20080;-56
2022/03/05 05:50:38;;;;;;;29.60;15.10;;;;;;;0.56;100.00;99020.13;5012804;28;20036;-54
2022/03/05 05:53:04;;;;;;;30.77;17.37;;;;;;;0.61;100.00;99018.59;5010550;28;20048;-56
2022/03/05 05:55:30;;;;;;;33.20;16.60;;;;;;;0.61;100.00;99018.59;5009610;28;20464;-58
2022/03/05 05:57:55;;;;;;;29.33;14.13;;;;;;;0.61;100.00;99016.06;5010524;28;20133;-58
2022/03/05 06:00:21;;;;;;;29.70;14.67;;;;;;;0.65;100.00;99022.91;5009990;28;20037;-59
2022/03/05 06:02:46;;;;;;;30.20;14.50;;;;;;;0.70;100.00;99028.91;5013650;28;20137;-59
2022/03/05 06:05:12;;;;;;;36.03;15.37;;;;;;;0.52;100.00;99025.91;5014435;28;20438;-56
2022/03/05 06:07:37;;;;;;;29.33;13.07;;;;;;;0.42;100.00;99027.31;5013394;28;20045;-58
2022/03/05 06:10:03;;;;;;;31.00;16.20;;;;;;;0.55;100.00;99027.69;5015271;28;20034;-59
2022/03/05 06:12:29;;;;;;;29.53;13.13;;;;;;;0.54;100.00;99031.00;5010644;28;20045;-57
2022/03/05 06:14:54;;;;;;;32.07;13.60;;;;;;;0.49;100.00;99040.97;5011396;28;20052;-58
2022/03/05 06:17:20;;;;;;;27.07;14.17;;;;;;;0.43;100.00;99033.22;5012911;28;20622;-59
2022/03/05 06:19:46;;;;;;;23.63;12.80;;;;;;;0.43;100.00;99038.25;5010582;28;20049;-58
2022/03/05 06:22:11;;;;;;;26.30;13.73;;;;;;;0.47;100.00;99037.53;5013061;28;20038;-58
2022/03/05 06:24:37;;;;;;;32.13;14.70;;;;;;;0.48;100.00;99049.34;5016182;28;20053;-58
2022/03/05 06:27:02;;;;;;;35.37;14.30;;;;;;;0.71;100.00;99037.34;5015731;28;20063;-56
2022/03/05 06:29:28;;;;;;;34.27;16.33;;;;;;;0.62;100.00;99037.09;5015283;28;20099;-58
2022/03/05 06:31:54;;;;;;;30.70;14.03;;;;;;;0.65;100.00;99049.78;5013481;28;20164;-57
2022/03/05 06:34:20;;;;;;;24.57;12.20;;;;;;;0.77;100.00;99048.44;5018785;28;20038;-57
2022/03/05 06:36:45;;;;;;;29.03;13.90;;;;;;;0.82;100.00;99054.47;5018576;28;20046;-58
2022/03/05 06:39:11;;;;;;;28.97;14.63;;;;;;;0.82;100.00;99061.19;5014459;28;20108;-57
2022/03/05 06:41:36;;;;;;;27.80;14.17;;;;;;;0.78;100.00;99056.88;5014461;28;20053;-57
2022/03/05 06:44:02;;;;;;;30.90;14.37;;;;;;;0.71;100.00;99049.97;5019767;28;20734;-57
2022/03/05 06:46:27;;;;;;;33.03;15.80;;;;;;;0.82;100.00;99051.94;5017202;28;20045;-58
2022/03/05 06:48:52;;;;;;;26.77;13.20;;;;;;;0.83;100.00;99038.53;5015794;28;20061;-57
2022/03/05 06:51:18;;;;;;;31.87;14.00;;;;;;;0.91;100.00;99053.84;5016512;28;20270;-57
2022/03/05 06:53:43;;;;;;;28.97;13.40;;;;;;;1.02;100.00;99056.66;5020641;28;20036;-56
2022/03/05 06:56:08;;;;;;;29.20;12.97;;;;;;;1.06;100.00;99053.41;5019851;28;20432;-57
2022/03/05 06:58:34;;;;;;;27.30;13.80;;;;;;;1.15;100.00;99061.19;5017291;28;20163;-58
2022/03/05 07:00:59;;;;;;;26.07;13.80;;;;;;;1.24;100.00;99056.38;5014148;28;20571;-58
2022/03/05 07:03:25;;;;;;;43.07;30.93;;;;;;;1.35;100.00;99060.03;5013767;28;20124;-58
2022/03/05 07:05:50;;;;;;;34.00;22.70;;;;;;;1.42;100.00;99069.44;5016318;28;20042;-57
2022/03/05 07:08:15;;;;;;;31.17;24.80;;;;;;;1.30;100.00;99064.09;5015867;28;20388;-57
2022/03/05 07:10:41;;;;;;;39.33;35.17;;;;;;;1.32;100.00;99062.44;5017149;28;20041;-58
2022/03/05 07:13:06;;;;;;;61.33;54.73;;;;;;;1.29;100.00;99060.72;5019537;28;20034;-57
2022/03/05 07:15:32;;;;;;;129.30;111.10;;;;;;;1.41;100.00;99066.88;5016634;28;20486;-57
2022/03/05 07:17:57;;;;;;;186.03;106.10;;;;;;;1.50;100.00;99062.03;5015237;28;20033;-57
2022/03/05 07:20:23;;;;;;;191.73;108.17;;;;;;;1.52;100.00;99066.34;5016280;28;20038;-57
2022/03/05 07:22:48;;;;;;;184.23;109.50;;;;;;;1.73;100.00;99063.44;5017578;28;20037;-60
2022/03/05 07:25:14;;;;;;;159.77;104.37;;;;;;;1.88;100.00;99070.50;5015571;28;20052;-58
2022/03/05 07:27:40;;;;;;;174.83;113.43;;;;;;;2.00;100.00;99073.31;5011129;28;20033;-60
2022/03/05 07:30:08;;;;;;;177.00;116.73;;;;;;;1.98;100.00;99067.38;5013195;28;20522;-56
2022/03/05 07:32:33;;;;;;;176.40;116.47;;;;;;;2.04;100.00;99072.53;5014676;28;20038;-56
2022/03/05 07:34:59;;;;;;;192.63;115.57;;;;;;;1.88;100.00;99071.38;5012713;28;20531;-57
2022/03/05 07:37:24;;;;;;;195.77;121.70;;;;;;;1.96;100.00;99062.28;5011461;28;20414;-57
2022/03/05 07:39:50;;;;;;;144.73;111.47;;;;;;;2.19;100.00;99070.34;5015031;28;20042;-57
2022/03/05 07:42:15;;;;;;;183.67;116.20;;;;;;;2.28;100.00;99075.63;5015070;28;20076;-57
2022/03/05 07:44:40;;;;;;;222.00;124.73;;;;;;;2.43;100.00;99073.38;5011777;28;20072;-57
2022/03/05 07:47:06;;;;;;;155.03;115.13;;;;;;;2.26;100.00;99073.03;5012805;28;20054;-58
2022/03/05 07:49:31;;;;;;;145.90;113.07;;;;;;;2.47;100.00;99076.81;5013165;28;20468;-57
2022/03/05 07:51:57;;;;;;;135.33;118.63;;;;;;;2.44;100.00;99072.56;5015328;28;20041;-57
2022/03/05 07:54:24;;;;;;;82.70;74.83;;;;;;;2.46;100.00;99075.16;5012989;28;20041;-58
2022/03/05 07:56:49;;;;;;;64.73;58.63;;;;;;;2.64;100.00;99073.81;5012973;28;20196;-57
2022/03/05 07:59:15;;;;;;;52.20;47.27;;;;;;;2.79;100.00;99075.78;5014872;28;20124;-59
2022/03/05 08:01:40;;;;;;;77.00;70.00;;;;;;;2.78;100.00;99081.69;5015493;28;20049;-58
2022/03/05 08:04:06;;;;;;;60.70;28.47;;;;;;;2.78;100.00;99075.75;5012193;28;20767;-55
2022/03/05 08:06:31;;;;;;;20.33;11.40;;;;;;;2.80;100.00;99072.41;5010308;28;20048;-57
2022/03/05 08:08:59;;;;;;;24.70;12.83;;;;;;;2.81;100.00;99079.19;5014502;28;20049;-58
2022/03/05 08:11:24;;;;;;;23.43;12.23;;;;;;;2.88;100.00;99070.91;5013824;28;20107;-58
2022/03/05 08:13:50;;;;;;;41.70;18.97;;;;;;;2.79;100.00;99077.47;5010739;28;20903;-57
2022/03/05 08:16:15;;;;;;;27.07;14.70;;;;;;;2.94;100.00;99083.66;5013010;28;20092;-55
2022/03/05 08:18:40;;;;;;;25.80;16.27;;;;;;;3.03;100.00;99075.38;5015152;28;20048;-57
2022/03/05 08:21:07;;;;;;;26.73;16.37;;;;;;;3.16;100.00;99073.09;5014930;28;20605;-58
2022/03/05 08:23:32;;;;;;;25.47;13.13;;;;;;;3.13;100.00;99070.53;5011295;28;20404;-56
2022/03/05 08:25:58;;;;;;;25.83;14.83;;;;;;;3.32;99.58;99075.88;5011166;28;20072;-58
2022/03/05 08:28:23;;;;;;;24.67;12.87;;;;;;;3.47;98.42;99081.22;5011456;28;20103;-56
2022/03/05 08:30:49;;;;;;;26.30;13.30;;;;;;;3.50;96.63;99083.78;5012526;28;20044;-57
2022/03/05 08:33:16;;;;;;;24.57;13.23;;;;;;;3.62;95.35;99083.97;5009937;28;20042;-57
2022/03/05 08:35:42;;;;;;;26.33;12.30;;;;;;;3.71;94.31;99086.66;5012901;28;20444;-57
2022/03/05 08:38:07;;;;;;;24.57;13.43;;;;;;;3.87;94.01;99093.66;5018716;28;20120;-58
2022/03/05 08:40:33;;;;;;;24.20;13.03;;;;;;;3.73;93.77;99090.09;5013829;28;20045;-56
2022/03/05 08:42:59;;;;;;;21.73;12.90;;;;;;;3.92;93.01;99091.19;5011079;28;20143;-58
2022/03/05 08:45:26;;;;;;;24.47;13.13;;;;;;;4.01;91.08;99099.81;5011930;28;20124;-59
2022/03/05 08:47:51;;;;;;;22.77;12.87;;;;;;;3.73;91.47;99090.09;5013441;28;20049;-58
2022/03/05 08:50:17;;;;;;;25.40;11.77;;;;;;;4.01;91.94;99093.88;5012932;28;20045;-58
2022/03/05 08:52:42;;;;;;;25.33;12.87;;;;;;;3.90;91.52;99082.75;5009618;28;20956;-58
2022/03/05 08:55:11;;;;;;;25.67;12.70;;;;;;;4.02;91.07;99091.38;5010101;28;20448;-56
2022/03/05 08:57:36;;;;;;;25.77;12.10;;;;;;;3.62;93.02;99089.91;5013863;28;20052;-58
2022/03/05 09:00:05;;;;;;;25.83;12.80;;;;;;;3.56;93.38;99082.22;5012231;28;20045;-59
2022/03/05 09:02:31;;;;;;;21.87;12.13;;;;;;;3.34;94.59;99079.31;5013055;28;20046;-58
2022/03/05 09:04:56;;;;;;;22.10;11.93;;;;;;;3.32;96.26;99086.88;5011806;28;20081;-59
2022/03/05 09:07:22;;;;;;;25.67;12.43;;;;;;;3.39;96.70;99087.84;4995031;28;20089;-56
2022/03/05 09:09:47;;;;;;;24.60;13.50;;;;;;;3.37;96.28;99080.19;5010203;28;20056;-57
2022/03/05 09:12:12;;;;;;;23.37;12.83;;;;;;;3.20;97.12;99077.38;5011455;28;20048;-53
2022/03/05 09:14:38;;;;;;;23.77;12.23;;;;;;;3.17;98.09;99082.41;5012005;28;20048;-57
2022/03/05 09:17:04;;;;;;;40.80;23.23;;;;;;;3.16;96.49;99087.44;5009958;28;20442;-56
2022/03/05 09:19:30;;;;;;;28.03;11.90;;;;;;;3.16;96.89;99084.91;5010032;28;20768;-58
2022/03/05 09:21:56;;;;;;;24.50;12.10;;;;;;;3.03;97.42;99086.38;5009183;28;20171;-56
2022/03/05 09:24:21;;;;;;;19.40;10.97;;;;;;;3.06;98.22;99086.41;5013143;28;20164;-56
2022/03/05 09:26:46;;;;;;;23.63;11.23;;;;;;;3.36;96.24;99090.31;5013748;28;20053;-58
2022/03/05 09:29:12;;;;;;;25.77;11.40;;;;;;;3.81;94.07;99083.44;5015217;28;20054;-57
2022/03/05 09:31:39;;;;;;;22.20;12.07;;;;;;;4.28;89.65;99096.81;5010231;28;20751;-58
2022/03/05 09:34:05;;;;;;;21.93;14.83;;;;;;;4.67;84.06;99082.91;5014642;28;20115;-57
2022/03/05 09:36:31;;;;;;;22.83;12.50;;;;;;;4.66;81.63;99068.50;5015145;28;20116;-57
2022/03/05 09:38:57;;;;;;;19.30;11.70;;;;;;;4.80;79.03;99074.56;5010742;28;20038;-57
2022/03/05 09:41:22;;;;;;;25.03;13.83;;;;;;;4.93;76.71;99079.81;5009129;28;20058;-56
2022/03/05 09:43:48;;;;;;;19.60;11.03;;;;;;;4.76;79.17;99076.22;5012580;28;20048;-58
2022/03/05 09:46:17;;;;;;;19.30;10.53;;;;;;;4.74;78.86;99079.59;5015871;28;20067;-58
2022/03/05 09:48:43;;;;;;;19.60;10.53;;;;;;;4.70;78.08;99080.41;5011547;28;20045;-57
2022/03/05 09:51:08;;;;;;;19.00;11.27;;;;;;;4.63;76.50;99082.00;5010961;28;20739;-58
2022/03/05 09:53:34;;;;;;;26.47;12.63;;;;;;;4.46;77.71;99080.94;5015674;28;20049;-57
2022/03/05 09:55:59;;;;;;;24.60;12.67;;;;;;;4.40;79.66;99083.41;5013475;28;20053;-58
2022/03/05 09:58:25;;;;;;;21.17;12.03;;;;;;;3.97;81.08;99089.59;5013374;28;20038;-58
2022/03/05 10:00:51;;;;;;;22.53;12.43;;;;;;;4.04;82.37;99083.75;5010741;28;20046;-58
2022/03/05 10:03:17;;;;;;;18.87;10.60;;;;;;;3.98;83.35;99089.63;5017774;28;20125;-55
2022/03/05 10:05:42;;;;;;;22.27;10.37;;;;;;;4.20;82.21;99087.38;5016441;28;20470;-56
2022/03/05 10:08:10;;;;;;;18.77;11.60;;;;;;;4.33;81.53;99095.16;5013245;28;20047;-57
2022/03/05 10:10:41;;;;;;;19.87;9.57;;;;;;;4.44;79.42;99085.16;5014402;28;20049;-57
2022/03/05 10:13:22;;;;;;;17.03;10.57;;;;;;;4.48;78.25;99097.06;5017535;28;20037;-58
2022/03/05 10:15:49;;;;;;;20.37;10.07;;;;;;;4.26;79.08;99095.06;5020514;28;20045;-59
2022/03/05 10:18:15;;;;;;;27.93;14.90;;;;;;;4.57;80.52;99079.41;5004466;28;20550;-58
2022/03/05 10:20:50;;;;;;;26.80;13.90;;;;;;;4.45;78.61;99089.41;5007937;28;20045;-59
2022/03/05 10:23:18;;;;;;;21.20;12.05;;;;;;;4.17;80.26;99087.31;5008093;28;20137;-57
2022/03/05 10:25:54;;;;;;;27.80;15.37;;;;;;;4.00;83.15;99076.94;5013940;28;20498;-58
2022/03/05 10:28:29;;;;;;;28.30;15.33;;;;;;;4.34;82.25;99076.56;5015249;28;20065;-57
2022/03/05 10:31:08;;;;;;;21.20;11.65;;;;;;;4.52;79.54;99075.94;5015818;28;21050;-59
2022/03/05 10:33:37;;;;;;;20.33;10.97;;;;;;;4.54;79.62;99072.59;5015052;28;20041;-56
2022/03/05 10:36:05;;;;;;;19.33;10.63;;;;;;;4.17;79.59;99067.03;5012831;28;20061;-57
2022/03/05 10:39:02;;;;;;;19.50;9.90;;;;;;;4.48;79.49;99075.06;5012528;28;20112;-58
2022/03/05 10:41:35;;;;;;;21.27;10.50;;;;;;;4.74;77.03;99079.59;5016875;28;20053;-56
2022/03/05 10:44:15;;;;;;;18.77;10.47;;;;;;;4.94;75.44;99076.44;5015176;28;20076;-56
2022/03/05 10:46:43;;;;;;;17.47;10.00;;;;;;;4.71;76.03;99071.94;5012948;28;20128;-57
2022/03/05 10:49:22;;;;;;;17.33;10.00;;;;;;;4.89;74.00;99069.59;5013585;28;20094;-56
2022/03/05 10:51:50;;;;;;;23.13;12.03;;;;;;;4.73;76.66;99067.72;5014457;28;20033;-57
2022/03/05 10:54:38;;;;;;;18.07;10.00;;;;;;;4.51;81.98;99069.16;5014321;28;20116;-57
2022/03/05 10:57:06;;;;;;;19.13;9.97;;;;;;;4.51;83.39;99066.63;5013406;28;20049;-55
2022/03/05 10:59:37;;;;;;;21.73;10.77;;;;;;;4.50;85.97;99070.84;5016034;28;20046;-57
2022/03/05 11:02:02;;;;;;;20.50;10.90;;;;;;;4.35;88.85;99078.28;5013059;28;20034;-56
2022/03/05 11:04:29;;;;;;;23.03;10.83;;;;;;;4.35;91.57;99079.97;5012065;28;20064;-58
2022/03/05 11:06:58;;;;;;;20.10;10.90;;;;;;;3.80;94.06;99075.81;5011045;28;20488;-59
2022/03/05 11:09:25;;;;;;;18.67;10.30;;;;;;;3.76;98.36;99063.91;5016710;28;20686;-58
2022/03/05 11:11:52;;;;;;;19.30;10.40;;;;;;;3.65;94.71;99069.66;5014268;28;20048;-57
2022/03/05 11:14:17;;;;;;;17.30;10.87;;;;;;;3.66;95.81;99056.16;5012796;28;20053;-55
2022/03/05 11:16:45;;;;;;;18.70;11.33;;;;;;;3.89;96.92;99061.59;5013671;28;20041;-53
2022/03/05 11:19:11;;;;;;;22.27;10.23;;;;;;;4.09;91.11;99061.84;5015370;28;20116;-57